Time;durP1;ratioP1;P1;durP2;ratioP2;P2;SDS_P1;SDS_P2;PMS_P1;PMS_P2;Temp;Humidity;BMP_temperature;BMP_pressure;BME280_temperature;BME280_humidity;BME280_pressure;Samples;Min_cycle;Max_cycle;Signal;HPM_P1;HPM_P2
2022/11/08 00:01:55;;;;;;;7.50;2.77;;;;;;;-145.14;100.00;70583.66;5043571;28;20226;-80
2022/11/08 00:04:21;;;;;;;7.70;2.43;;;;;;;-145.14;100.00;70583.66;5021401;28;20450;-80
2022/11/08 00:15:00;;;;;;;9.97;3.00;;;;;;;-145.14;100.00;70583.66;5035168;28;20517;-78
2022/11/08 00:17:28;;;;;;;8.87;2.60;;;;;;;-145.14;100.00;70583.66;5035334;28;20505;-80
2022/11/08 00:19:54;;;;;;;13.57;2.97;;;;;;;-145.14;100.00;70583.66;5043410;28;20442;-81
2022/11/08 00:22:19;;;;;;;12.57;3.30;;;;;;;-145.14;100.00;70583.66;5047724;28;20866;-77
2022/11/08 00:24:45;;;;;;;12.80;3.37;;;;;;;-145.14;100.00;70583.66;5046115;28;20188;-80
2022/11/08 00:27:16;;;;;;;10.73;2.60;;;;;;;-145.14;100.00;70583.66;5029778;28;20179;-79
2022/11/08 00:29:42;;;;;;;12.43;3.47;;;;;;;-145.14;100.00;70583.66;5047713;28;20175;-78
2022/11/08 00:32:11;;;;;;;13.43;3.37;;;;;;;-145.14;100.00;70583.66;5039965;28;20442;-81
2022/11/08 00:34:36;;;;;;;8.77;2.40;;;;;;;-145.14;100.00;70583.66;5046658;28;20227;-78
2022/11/08 00:37:02;;;;;;;10.53;2.90;;;;;;;-145.14;100.00;70583.66;5047629;28;20573;-79
2022/11/08 00:39:27;;;;;;;8.13;2.77;;;;;;;-145.14;100.00;70583.66;5041012;28;20205;-81
2022/11/08 00:41:53;;;;;;;7.17;2.10;;;;;;;-145.14;100.00;70583.66;5042811;28;20183;-79
2022/11/08 00:44:18;;;;;;;7.17;2.50;;;;;;;-145.14;100.00;70583.66;5042367;28;20214;-80
2022/11/08 00:46:44;;;;;;;9.40;2.60;;;;;;;-145.14;100.00;70583.66;5040548;28;20215;-80
2022/11/08 00:49:09;;;;;;;14.27;2.93;;;;;;;-145.14;100.00;70583.66;5037958;28;20188;-80
2022/11/08 00:51:36;;;;;;;13.13;3.27;;;;;;;-145.14;100.00;70583.66;5020809;28;20566;-77
2022/11/08 00:54:03;;;;;;;10.90;3.43;;;;;;;-145.14;100.00;70583.66;5019607;28;20294;-80
2022/11/08 00:56:28;;;;;;;10.97;2.80;;;;;;;-145.14;100.00;70583.66;5036114;28;21317;-79
2022/11/08 00:58:54;;;;;;;10.67;2.77;;;;;;;-145.14;100.00;70583.66;5040969;28;20437;-83
2022/11/08 01:01:20;;;;;;;14.90;3.97;;;;;;;-145.14;100.00;70583.66;5039866;28;20689;-82
2022/11/08 01:03:48;;;;;;;10.70;3.00;;;;;;;-145.14;100.00;70583.66;5023629;28;20211;-81
2022/11/08 01:06:15;;;;;;;11.40;3.53;;;;;;;-145.14;100.00;70583.66;5035352;28;20477;-80
2022/11/08 01:08:41;;;;;;;9.70;2.87;;;;;;;-145.14;100.00;70583.66;5024309;28;20441;-80
2022/11/08 01:11:12;;;;;;;6.67;2.60;;;;;;;-145.14;100.00;70583.66;5037902;28;20441;-83
2022/11/08 01:13:38;;;;;;;8.03;3.20;;;;;;;-145.14;100.00;70583.66;5022360;28;20461;-84
2022/11/08 01:16:08;;;;;;;10.07;2.90;;;;;;;-145.14;100.00;70583.66;5027117;28;20458;-80
2022/11/08 01:18:34;;;;;;;9.70;2.97;;;;;;;-145.14;100.00;70583.66;5018580;28;20423;-81
2022/11/08 01:21:01;;;;;;;12.40;2.67;;;;;;;-145.14;100.00;70583.66;5036317;28;21254;-80
2022/11/08 01:23:26;;;;;;;10.13;2.87;;;;;;;-145.14;100.00;70583.66;5020159;28;20203;-80
2022/11/08 01:25:52;;;;;;;12.77;3.23;;;;;;;-145.14;100.00;70583.66;5023379;28;20426;-82
2022/11/08 01:28:17;;;;;;;11.40;2.67;;;;;;;-145.14;100.00;70583.66;5018218;28;20198;-82
2022/11/08 01:30:43;;;;;;;8.57;2.90;;;;;;;-145.14;100.00;70583.66;5022915;28;20187;-81
2022/11/08 01:33:09;;;;;;;8.53;2.60;;;;;;;-145.14;100.00;70583.66;5020132;28;20729;-83
2022/11/08 01:35:36;;;;;;;9.73;2.37;;;;;;;-145.14;100.00;70583.66;5034368;28;20434;-81
2022/11/08 01:38:02;;;;;;;8.83;2.40;;;;;;;-145.14;100.00;70583.66;5045518;28;20449;-83
2022/11/08 01:40:28;;;;;;;14.27;2.40;;;;;;;-145.14;100.00;70583.66;5037922;28;20453;-82
2022/11/08 01:42:54;;;;;;;8.70;2.50;;;;;;;-145.14;100.00;70583.66;5039717;28;20454;-82
2022/11/08 01:45:57;;;;;;;7.70;2.40;;;;;;;-145.14;100.00;70583.66;5040982;28;20442;-83
2022/11/08 01:48:24;;;;;;;15.40;3.53;;;;;;;-145.14;100.00;70583.66;5043681;28;20183;-81
2022/11/08 01:50:51;;;;;;;18.63;3.60;;;;;;;-145.14;100.00;70583.66;5041431;28;20434;-82
2022/11/08 01:53:18;;;;;;;9.30;2.60;;;;;;;-145.14;100.00;70583.66;5038143;28;20480;-82
2022/11/08 01:55:44;;;;;;;12.27;3.37;;;;;;;-145.14;100.00;70583.66;5015491;28;20441;-78
2022/11/08 01:58:20;;;;;;;16.00;3.70;;;;;;;-145.14;100.00;70583.66;5033803;28;20453;-83
2022/11/08 02:00:45;;;;;;;11.80;2.83;;;;;;;-145.14;100.00;70583.66;5019981;28;20465;-81
2022/11/08 02:03:15;;;;;;;7.83;2.23;;;;;;;-145.14;100.00;70583.66;5021396;28;20592;-82
2022/11/08 02:05:40;;;;;;;8.13;3.20;;;;;;;-145.14;100.00;70583.66;5017702;28;20651;-81
2022/11/08 02:08:18;;;;;;;8.33;2.50;;;;;;;-145.14;100.00;70583.66;5035063;28;20441;-84
2022/11/08 02:10:48;;;;;;;8.30;2.40;;;;;;;-145.14;100.00;70583.66;5033181;28;20183;-80
2022/11/08 02:13:17;;;;;;;10.33;2.70;;;;;;;-145.14;100.00;70583.66;5033956;28;20470;-82
2022/11/08 02:15:43;;;;;;;12.23;2.90;;;;;;;-145.14;100.00;70583.66;5033677;28;20446;-83
2022/11/08 02:18:10;;;;;;;6.20;2.23;;;;;;;-145.14;100.00;70583.66;5039304;28;20507;-81
2022/11/08 02:20:35;;;;;;;12.10;3.00;;;;;;;-145.14;100.00;70583.66;5019613;28;20207;-82
2022/11/08 02:23:23;;;;;;;7.27;2.30;;;;;;;-145.14;100.00;70583.66;5024667;28;20584;-79
2022/11/08 02:25:49;;;;;;;9.60;3.03;;;;;;;-145.14;100.00;70583.66;5039473;28;20180;-82
2022/11/08 02:28:15;;;;;;;12.77;3.83;;;;;;;-145.14;100.00;70583.66;5042189;28;20472;-81
2022/11/08 02:30:41;;;;;;;9.97;2.13;;;;;;;-145.14;100.00;70583.66;5021503;28;20218;-80
2022/11/08 02:33:17;;;;;;;9.27;2.60;;;;;;;-145.14;100.00;70583.66;5023275;28;20234;-81
2022/11/08 02:35:48;;;;;;;13.10;3.37;;;;;;;-145.14;100.00;70583.66;5037025;28;20445;-82
2022/11/08 02:38:14;;;;;;;9.57;2.30;;;;;;;-145.14;100.00;70583.66;5039524;28;20447;-79
2022/11/08 02:40:48;;;;;;;7.60;2.30;;;;;;;-145.14;100.00;70583.66;5037580;28;20524;-82
2022/11/08 02:43:14;;;;;;;15.53;3.43;;;;;;;-145.14;100.00;70583.66;5039438;28;20490;-81
2022/11/08 02:45:39;;;;;;;12.30;2.47;;;;;;;-145.14;100.00;70583.66;5019471;28;21156;-80
2022/11/08 02:48:05;;;;;;;14.20;2.80;;;;;;;-145.14;100.00;70583.66;5037719;28;20196;-82
2022/11/08 02:50:31;;;;;;;10.23;3.50;;;;;;;-145.14;100.00;70583.66;5039700;28;20668;-81
2022/11/08 02:52:56;;;;;;;8.73;3.10;;;;;;;-145.14;100.00;70583.66;5035170;28;20516;-81
2022/11/08 02:55:22;;;;;;;7.77;2.23;;;;;;;-145.14;100.00;70583.66;5035468;28;20214;-78
2022/11/08 02:57:47;;;;;;;9.67;2.90;;;;;;;-145.14;100.00;70583.66;5034683;28;20342;-85
2022/11/08 03:00:13;;;;;;;7.53;2.67;;;;;;;-145.14;100.00;70583.66;5034123;28;20195;-85
2022/11/08 03:02:38;;;;;;;9.93;2.67;;;;;;;-145.14;100.00;70583.66;5038745;28;20693;-82
2022/11/08 03:05:04;;;;;;;7.30;2.27;;;;;;;-145.14;100.00;70583.66;5015157;28;20488;-80
2022/11/08 03:07:30;;;;;;;7.73;2.17;;;;;;;-145.14;100.00;70583.66;5039774;28;20187;-80
2022/11/08 03:09:55;;;;;;;7.47;2.47;;;;;;;-145.14;100.00;70583.66;5038235;28;20199;-79
2022/11/08 03:12:20;;;;;;;11.53;2.67;;;;;;;-145.14;100.00;70583.66;5035764;28;20183;-81
2022/11/08 03:14:46;;;;;;;9.73;2.80;;;;;;;-145.14;100.00;70583.66;5019020;28;20214;-82
2022/11/08 03:17:11;;;;;;;12.30;2.60;;;;;;;-145.14;100.00;70583.66;5021278;28;20746;-80
2022/11/08 03:19:37;;;;;;;5.70;2.13;;;;;;;-145.14;100.00;70583.66;5019111;28;20202;-84
2022/11/08 03:22:02;;;;;;;11.57;2.17;;;;;;;-145.14;100.00;70583.66;5028734;28;20235;-82
2022/11/08 03:24:27;;;;;;;10.80;3.03;;;;;;;-145.14;100.00;70583.66;5040204;28;20691;-82
2022/11/08 03:26:53;;;;;;;10.70;2.97;;;;;;;-145.14;100.00;70583.66;5025448;28;20954;-79
2022/11/08 03:29:18;;;;;;;5.33;2.10;;;;;;;-145.14;100.00;70583.66;5023554;28;20278;-81
2022/11/08 03:31:44;;;;;;;5.93;2.40;;;;;;;-145.14;100.00;70583.66;5044571;28;20707;-83
2022/11/08 03:34:09;;;;;;;9.80;3.13;;;;;;;-145.14;100.00;70583.66;5023630;28;20762;-80
2022/11/08 03:36:35;;;;;;;9.50;2.70;;;;;;;-145.14;100.00;70583.66;5042999;28;20208;-81
2022/11/08 03:39:00;;;;;;;9.50;2.90;;;;;;;-145.14;100.00;70583.66;5038253;28;20192;-80
2022/11/08 03:41:26;;;;;;;6.63;2.37;;;;;;;-145.14;100.00;70583.66;5036699;28;20195;-83
2022/11/08 03:43:52;;;;;;;8.80;2.53;;;;;;;-145.14;100.00;70583.66;5021596;28;20210;-82
2022/11/08 03:46:17;;;;;;;9.73;2.80;;;;;;;-145.14;100.00;70583.66;5038429;28;20720;-83
2022/11/08 03:48:42;;;;;;;8.53;2.33;;;;;;;-145.14;100.00;70583.66;5023497;28;22462;-80
2022/11/08 03:51:08;;;;;;;13.60;3.00;;;;;;;-145.14;100.00;70583.66;5038581;28;20188;-81
2022/11/08 03:53:33;;;;;;;12.33;2.27;;;;;;;-145.14;100.00;70583.66;5036313;28;20339;-83
2022/11/08 03:55:59;;;;;;;9.37;2.47;;;;;;;-145.14;100.00;70583.66;5019189;28;20235;-84
2022/11/08 03:58:25;;;;;;;9.43;2.67;;;;;;;-145.14;100.00;70583.66;5036488;28;20303;-82
2022/11/08 04:00:50;;;;;;;11.97;2.50;;;;;;;-145.14;100.00;70583.66;5020005;28;20245;-81
2022/11/08 04:03:16;;;;;;;7.23;2.23;;;;;;;-145.14;100.00;70583.66;5025725;28;20204;-81
2022/11/08 04:05:41;;;;;;;7.67;2.73;;;;;;;-145.14;100.00;70583.66;5037093;28;20652;-83
2022/11/08 04:08:06;;;;;;;8.60;2.80;;;;;;;-145.14;100.00;70583.66;5016567;28;20546;-81
2022/11/08 04:10:32;;;;;;;7.53;2.20;;;;;;;-145.14;100.00;70583.66;5018411;28;20364;-81
2022/11/08 04:15:55;;;;;;;11.30;2.47;;;;;;;-145.14;100.00;70583.66;4999016;28;20518;-73
2022/11/08 04:21:21;;;;;;;6.77;2.33;;;;;;;-145.14;100.00;70583.66;5000148;28;20540;-73
2022/11/08 04:23:51;;;;;;;9.43;2.77;;;;;;;-145.14;100.00;70583.66;5000248;28;20594;-73
2022/11/08 04:26:17;;;;;;;5.50;2.13;;;;;;;-145.14;100.00;70583.66;5003637;28;20574;-73
2022/11/08 04:28:43;;;;;;;6.70;2.10;;;;;;;-145.14;100.00;70583.66;4979392;28;20479;-73
2022/11/08 04:31:18;;;;;;;5.10;1.87;;;;;;;-145.14;100.00;70583.66;5001254;28;21326;-72
2022/11/08 04:33:44;;;;;;;8.37;2.20;;;;;;;-145.14;100.00;70583.66;5003592;28;20670;-73
2022/11/08 04:36:13;;;;;;;11.10;2.37;;;;;;;-145.14;100.00;70583.66;4987371;28;20459;-73
2022/11/08 04:38:38;;;;;;;6.67;2.07;;;;;;;-145.14;100.00;70583.66;4996788;28;20475;-74
2022/11/08 04:41:06;;;;;;;5.80;2.17;;;;;;;-145.14;100.00;70583.66;4988751;28;20982;-73
2022/11/08 04:43:32;;;;;;;6.87;2.03;;;;;;;-145.14;100.00;70583.66;4994463;28;20255;-73
2022/11/08 04:45:59;;;;;;;7.33;2.50;;;;;;;-145.14;100.00;70583.66;5000900;28;20436;-73
2022/11/08 04:48:24;;;;;;;12.30;2.27;;;;;;;-145.14;100.00;70583.66;4976711;28;20181;-73
2022/11/08 04:50:50;;;;;;;6.60;2.50;;;;;;;-145.14;100.00;70583.66;4997763;28;20472;-73
2022/11/08 04:53:15;;;;;;;11.30;2.57;;;;;;;-145.14;100.00;70583.66;4985054;28;20189;-73
2022/11/08 04:55:40;;;;;;;6.17;2.13;;;;;;;-145.14;100.00;70583.66;4982075;28;20255;-73
2022/11/08 04:58:06;;;;;;;9.53;2.07;;;;;;;-145.14;100.00;70583.66;4979755;28;20227;-73
2022/11/08 05:00:31;;;;;;;9.93;2.17;;;;;;;-145.14;100.00;70583.66;4982532;28;20220;-73
2022/11/08 05:02:57;;;;;;;8.43;2.20;;;;;;;-145.14;100.00;70583.66;4976503;28;20243;-73
2022/11/08 05:05:22;;;;;;;7.53;2.30;;;;;;;-145.14;100.00;70583.66;4981040;28;20190;-73
2022/11/08 05:07:47;;;;;;;12.20;2.33;;;;;;;-145.14;100.00;70583.66;4996321;28;20181;-73
2022/11/08 05:10:13;;;;;;;7.53;1.83;;;;;;;-145.14;100.00;70583.66;4994186;28;20741;-74
2022/11/08 05:12:38;;;;;;;6.63;2.30;;;;;;;-145.14;100.00;70583.66;4998368;28;20686;-74
2022/11/08 05:15:04;;;;;;;6.20;2.20;;;;;;;-145.14;100.00;70583.66;4993143;28;20332;-74
2022/11/08 05:17:30;;;;;;;4.77;1.90;;;;;;;-145.14;100.00;70583.66;5000434;28;20219;-73
2022/11/08 05:25:23;;;;;;;4.97;1.70;;;;;;;-145.14;100.00;70583.66;5005076;28;20527;-74
2022/11/08 05:27:48;;;;;;;6.67;2.00;;;;;;;-145.14;100.00;70583.66;4983738;28;20436;-73
2022/11/08 05:30:14;;;;;;;9.00;2.80;;;;;;;-145.14;100.00;70583.66;4992998;28;20212;-74
2022/11/08 05:32:39;;;;;;;6.83;2.23;;;;;;;-145.14;100.00;70583.66;5009063;28;20280;-73
2022/11/08 05:35:05;;;;;;;8.73;2.03;;;;;;;-145.14;100.00;70583.66;4997506;28;20193;-73
2022/11/08 05:37:31;;;;;;;13.70;2.60;;;;;;;-145.14;100.00;70583.66;4987326;28;20598;-73
2022/11/08 05:39:56;;;;;;;7.50;2.60;;;;;;;-145.14;100.00;70583.66;5000374;28;20490;-73
2022/11/08 05:42:21;;;;;;;7.60;2.47;;;;;;;-145.14;100.00;70583.66;5003194;28;20193;-73
2022/11/08 05:44:47;;;;;;;8.27;2.23;;;;;;;-145.14;100.00;70583.66;4983050;28;20623;-73
2022/11/08 05:47:12;;;;;;;10.70;2.73;;;;;;;-145.14;100.00;70583.66;5001504;28;20189;-73
2022/11/08 05:49:37;;;;;;;8.03;2.20;;;;;;;-145.14;100.00;70583.66;4983231;28;20189;-74
2022/11/08 05:52:03;;;;;;;5.47;1.90;;;;;;;-145.14;100.00;70583.66;4995338;28;20189;-73
2022/11/08 05:54:28;;;;;;;8.80;2.03;;;;;;;-145.14;100.00;70583.66;4979840;28;20243;-73
2022/11/08 05:56:54;;;;;;;8.70;3.20;;;;;;;-145.14;100.00;70583.66;5000009;28;20235;-73
2022/11/08 05:59:19;;;;;;;10.33;2.87;;;;;;;-145.14;100.00;70583.66;5000908;28;20243;-73
2022/11/08 06:01:45;;;;;;;9.03;2.80;;;;;;;-145.14;100.00;70583.66;4998639;28;20217;-73
2022/11/08 06:04:10;;;;;;;8.97;2.67;;;;;;;-145.14;100.00;70583.66;4999974;28;20188;-73
2022/11/08 06:06:36;;;;;;;6.40;2.40;;;;;;;-145.14;100.00;70583.66;4979648;28;20279;-73
2022/11/08 06:09:01;;;;;;;5.93;2.40;;;;;;;-145.14;100.00;70583.66;4997723;28;20228;-73
2022/11/08 06:11:27;;;;;;;7.37;2.43;;;;;;;-145.14;100.00;70583.66;4999384;28;20223;-73
2022/11/08 06:13:53;;;;;;;6.97;2.33;;;;;;;-145.14;100.00;70583.66;5000020;28;20903;-73
2022/11/08 06:16:20;;;;;;;7.40;3.13;;;;;;;-145.14;100.00;70583.66;5000387;28;20661;-73
2022/11/08 06:18:45;;;;;;;7.40;2.73;;;;;;;-145.14;100.00;70583.66;4988850;28;20440;-73
2022/11/08 06:21:14;;;;;;;9.27;3.50;;;;;;;-145.14;100.00;70583.66;5006485;28;20463;-73
2022/11/08 06:23:40;;;;;;;9.63;3.40;;;;;;;-145.14;100.00;70583.66;5006445;28;20246;-73
2022/11/08 06:26:06;;;;;;;9.30;3.27;;;;;;;-145.14;100.00;70583.66;4981359;28;20447;-73
2022/11/08 06:28:31;;;;;;;13.10;3.70;;;;;;;-145.14;100.00;70583.66;4978579;28;20445;-72
2022/11/08 06:30:58;;;;;;;10.20;2.63;;;;;;;-145.14;100.00;70583.66;4988631;28;20212;-73
2022/11/08 06:33:24;;;;;;;9.40;3.20;;;;;;;-145.14;100.00;70583.66;5002207;28;20185;-73
2022/11/08 06:35:49;;;;;;;7.50;3.33;;;;;;;-145.14;100.00;70583.66;4988882;28;20439;-73
2022/11/08 06:38:15;;;;;;;8.03;3.00;;;;;;;-145.14;100.00;70583.66;5000119;28;21009;-73
2022/11/08 06:40:41;;;;;;;7.87;2.90;;;;;;;-145.14;100.00;70583.66;4998274;28;20207;-73
2022/11/08 06:43:09;;;;;;;8.20;2.80;;;;;;;-145.14;100.00;70583.66;4995001;28;20244;-73
2022/11/08 06:45:35;;;;;;;8.67;3.13;;;;;;;-145.14;100.00;70583.66;5003962;28;20519;-72
2022/11/08 06:48:02;;;;;;;12.43;3.23;;;;;;;-145.14;100.00;70583.66;5008085;28;20474;-73
2022/11/08 06:50:29;;;;;;;7.20;2.53;;;;;;;-145.14;100.00;70583.66;4997643;28;20463;-73
2022/11/08 06:52:56;;;;;;;6.93;2.70;;;;;;;-145.14;100.00;70583.66;5007218;28;20494;-73
2022/11/08 06:55:22;;;;;;;7.03;3.10;;;;;;;-145.14;100.00;70583.66;4996784;28;20451;-73
2022/11/08 06:57:48;;;;;;;8.00;2.20;;;;;;;-145.14;100.00;70583.66;5006468;28;20478;-73
2022/11/08 07:00:14;;;;;;;5.80;2.40;;;;;;;-145.14;100.00;70583.66;5005559;28;20209;-73
2022/11/08 07:02:40;;;;;;;9.20;2.23;;;;;;;-145.14;100.00;70583.66;4984732;28;20564;-72
2022/11/08 07:05:05;;;;;;;8.60;2.80;;;;;;;-145.14;100.00;70583.66;5001434;28;20439;-73
2022/11/08 07:07:31;;;;;;;5.93;2.07;;;;;;;-145.14;100.00;70583.66;5007000;28;20448;-73
2022/11/08 07:09:56;;;;;;;9.70;3.13;;;;;;;-145.14;100.00;70583.66;4988007;28;20212;-73
2022/11/08 07:12:21;;;;;;;12.27;2.57;;;;;;;-145.14;100.00;70583.66;4989222;28;20196;-73
2022/11/08 07:14:47;;;;;;;6.73;2.70;;;;;;;-145.14;100.00;70583.66;4987831;28;20196;-73
2022/11/08 07:17:14;;;;;;;6.27;2.40;;;;;;;-145.14;100.00;70583.66;5005759;28;20227;-72
2022/11/08 07:19:40;;;;;;;8.93;2.10;;;;;;;-145.14;100.00;70583.66;5005996;28;20674;-73
2022/11/08 07:22:05;;;;;;;6.20;2.50;;;;;;;-145.14;100.00;70583.66;5006098;28;20444;-73
2022/11/08 07:24:31;;;;;;;4.53;2.27;;;;;;;-145.14;100.00;70583.66;5006819;28;20225;-73
2022/11/08 07:26:56;;;;;;;5.67;2.40;;;;;;;-145.14;100.00;70583.66;4989113;28;20267;-73
2022/11/08 07:29:22;;;;;;;7.50;2.33;;;;;;;-145.14;100.00;70583.66;4981647;28;20189;-73
2022/11/08 07:31:47;;;;;;;5.30;2.10;;;;;;;-145.14;100.00;70583.66;5004300;28;20209;-73
2022/11/08 07:34:12;;;;;;;6.80;2.10;;;;;;;-145.14;100.00;70583.66;5000751;28;20199;-73
2022/11/08 07:36:38;;;;;;;6.70;2.00;;;;;;;-145.14;100.00;70583.66;4992411;28;20255;-73
2022/11/08 07:39:03;;;;;;;4.37;1.90;;;;;;;-145.14;100.00;70583.66;5008082;28;20207;-73
2022/11/08 07:41:29;;;;;;;7.27;2.43;;;;;;;-145.14;100.00;70583.66;4991223;28;20215;-73
2022/11/08 07:43:54;;;;;;;9.03;2.67;;;;;;;-145.14;100.00;70583.66;4977333;28;20581;-72
2022/11/08 07:46:19;;;;;;;6.67;1.83;;;;;;;-145.14;100.00;70583.66;5006280;28;20189;-73
2022/11/08 07:48:45;;;;;;;7.70;2.10;;;;;;;-145.14;100.00;70583.66;4990782;28;20232;-72
2022/11/08 07:51:10;;;;;;;9.17;2.60;;;;;;;-145.14;100.00;70583.66;5013141;28;20218;-72
2022/11/08 07:53:36;;;;;;;5.50;1.93;;;;;;;-145.14;100.00;70583.66;5010435;28;20724;-73
2022/11/08 07:56:01;;;;;;;6.90;2.20;;;;;;;-145.14;100.00;70583.66;5015998;28;20209;-73
2022/11/08 07:58:26;;;;;;;9.80;2.47;;;;;;;-145.14;100.00;70583.66;5015540;28;20201;-73
2022/11/08 08:00:52;;;;;;;5.07;1.70;;;;;;;-145.14;100.00;70583.66;5011012;28;20201;-73
2022/11/08 08:03:18;;;;;;;5.47;2.30;;;;;;;-145.14;100.00;70583.66;5006950;28;20195;-73
2022/11/08 08:05:49;;;;;;;5.03;1.70;;;;;;;-145.14;100.00;70583.66;4997217;28;20203;-72
2022/11/08 08:08:14;;;;;;;6.73;1.90;;;;;;;-145.14;100.00;70583.66;5012799;28;20196;-73
2022/11/08 08:10:40;;;;;;;6.30;2.20;;;;;;;-145.14;100.00;70583.66;5010144;28;20463;-73
2022/11/08 08:13:05;;;;;;;12.53;3.00;;;;;;;-145.14;100.00;70583.66;5004054;28;20236;-73
2022/11/08 08:15:31;;;;;;;9.23;2.10;;;;;;;-145.14;100.00;70583.66;5003991;28;20181;-73
2022/11/08 08:17:59;;;;;;;6.30;2.53;;;;;;;-145.14;100.00;70583.66;5003676;28;20208;-73
2022/11/08 08:20:24;;;;;;;7.90;1.90;;;;;;;-145.14;100.00;70583.66;4984479;28;20213;-73
2022/11/08 08:22:50;;;;;;;9.13;2.20;;;;;;;-145.14;100.00;70583.66;5002902;28;20802;-73
2022/11/08 08:25:17;;;;;;;6.10;2.23;;;;;;;-145.14;100.00;70583.66;4985570;28;20748;-73
2022/11/08 08:27:50;;;;;;;7.87;1.63;;;;;;;-145.14;100.00;70583.66;4994809;28;20193;-73
2022/11/08 08:30:17;;;;;;;6.90;1.87;;;;;;;-145.14;100.00;70583.66;5001165;28;20615;-74
2022/11/08 08:32:43;;;;;;;7.40;2.10;;;;;;;-145.14;100.00;70583.66;4998464;28;20455;-74
2022/11/08 08:35:09;;;;;;;7.87;2.30;;;;;;;-145.14;100.00;70583.66;4978059;28;20473;-73
2022/11/08 08:37:34;;;;;;;4.67;2.10;;;;;;;-145.14;100.00;70583.66;4996665;28;20461;-75
2022/11/08 08:40:00;;;;;;;6.33;1.60;;;;;;;-145.14;100.00;70583.66;5001385;28;20250;-73
2022/11/08 08:42:25;;;;;;;8.80;2.70;;;;;;;-145.14;100.00;70583.66;4999939;28;20189;-73
2022/11/08 08:44:50;;;;;;;6.20;2.30;;;;;;;-145.14;100.00;70583.66;5005327;28;20188;-73
2022/11/08 08:47:16;;;;;;;5.23;1.60;;;;;;;-145.14;100.00;70583.66;5009930;28;20204;-73
2022/11/08 08:49:41;;;;;;;7.43;1.70;;;;;;;-145.14;100.00;70583.66;4990581;28;20181;-73
2022/11/08 08:52:07;;;;;;;4.10;1.70;;;;;;;-145.14;100.00;70583.66;5007955;28;20556;-73
2022/11/08 08:54:32;;;;;;;6.10;1.30;;;;;;;-145.14;100.00;70583.66;5008898;28;20749;-73
2022/11/08 08:56:57;;;;;;;3.73;1.33;;;;;;;-145.14;100.00;70583.66;5008213;28;20239;-73
2022/11/08 08:59:23;;;;;;;2.77;1.30;;;;;;;-145.14;100.00;70583.66;4991742;28;20219;-74
2022/11/08 09:01:48;;;;;;;6.03;1.60;;;;;;;-145.14;100.00;70583.66;5008661;28;20688;-73
2022/11/08 09:04:14;;;;;;;6.63;1.37;;;;;;;-145.14;100.00;70583.66;5007659;28;20225;-73
2022/11/08 09:06:39;;;;;;;4.07;1.37;;;;;;;-145.14;100.00;70583.66;5007749;28;20192;-73
2022/11/08 09:09:05;;;;;;;5.20;1.50;;;;;;;-145.14;100.00;70583.66;5009431;28;20189;-73
2022/11/08 09:11:30;;;;;;;4.43;1.50;;;;;;;-145.14;100.00;70583.66;5006680;28;20210;-72
2022/11/08 09:13:56;;;;;;;5.70;1.50;;;;;;;-145.14;100.00;70583.66;4988788;28;20546;-73
2022/11/08 09:16:21;;;;;;;7.13;1.57;;;;;;;-145.14;100.00;70583.66;5004500;28;20232;-73
2022/11/08 09:18:47;;;;;;;3.67;1.20;;;;;;;-145.14;100.00;70583.66;5009405;28;20181;-73
2022/11/08 09:21:12;;;;;;;5.00;1.33;;;;;;;-145.14;100.00;70583.66;5007772;28;20201;-73
2022/11/08 09:23:38;;;;;;;6.50;1.53;;;;;;;-145.14;100.00;70583.66;4991832;28;20181;-73
2022/11/08 09:26:05;;;;;;;5.07;1.37;;;;;;;-145.14;100.00;70583.66;4986711;28;20196;-73
2022/11/08 09:28:32;;;;;;;3.00;1.20;;;;;;;-145.14;100.00;70583.66;5002411;28;20188;-73
2022/11/08 09:31:08;;;;;;;3.43;1.47;;;;;;;-145.14;100.00;70583.66;5004024;28;20467;-73
2022/11/08 09:33:35;;;;;;;5.83;1.57;;;;;;;-145.14;100.00;70583.66;5006246;28;20476;-73
2022/11/08 09:36:03;;;;;;;3.10;1.50;;;;;;;-145.14;100.00;70583.66;5007110;28;20435;-73
2022/11/08 09:38:29;;;;;;;5.80;1.47;;;;;;;-145.14;100.00;70583.66;5007168;28;20458;-73
2022/11/08 09:41:15;;;;;;;2.20;1.40;;;;;;;-145.14;100.00;70583.66;4984724;28;21700;-74
2022/11/08 09:43:47;;;;;;;4.50;1.37;;;;;;;-145.14;100.00;70583.66;5004170;28;20446;-74
2022/11/08 09:46:27;;;;;;;3.90;1.43;;;;;;;-145.14;100.00;70583.66;5005496;28;20407;-73
2022/11/08 09:48:55;;;;;;;5.23;1.50;;;;;;;-145.14;100.00;70583.66;5002421;28;20446;-73
2022/11/08 09:51:23;;;;;;;4.07;1.30;;;;;;;-145.14;100.00;70583.66;5002427;28;20456;-73
2022/11/08 09:53:52;;;;;;;3.30;1.43;;;;;;;-145.14;100.00;70583.66;5010417;28;20502;-73
2022/11/08 09:56:27;;;;;;;3.07;1.30;;;;;;;-145.14;100.00;70583.66;5018366;28;20463;-74
2022/11/08 09:59:10;;;;;;;4.13;1.43;;;;;;;-145.14;100.00;70583.66;5022467;28;20435;-73
2022/11/08 10:01:36;;;;;;;5.80;1.70;;;;;;;-145.14;100.00;70583.66;5007394;28;20448;-73
2022/11/08 10:04:10;;;;;;;5.07;1.70;;;;;;;-145.14;100.00;70583.66;5019059;28;20436;-73
2022/11/08 10:06:54;;;;;;;3.00;1.30;;;;;;;-145.14;100.00;70583.66;5023060;28;20180;-72
2022/11/08 10:09:53;;;;;;;4.20;1.80;;;;;;;-145.14;100.00;70583.66;5017258;28;20429;-73
2022/11/08 10:12:41;;;;;;;3.10;1.47;;;;;;;-145.14;100.00;70583.66;5006925;28;20423;-73
2022/11/08 10:15:39;;;;;;;3.03;1.60;;;;;;;-145.14;100.00;70583.66;5006844;28;20412;-73
2022/11/08 10:18:26;;;;;;;5.90;1.57;;;;;;;-145.14;100.00;70583.66;4973396;28;20467;-73
2022/11/08 10:21:16;;;;;;;4.60;1.50;;;;;;;-145.14;100.00;70583.66;5006630;28;20436;-73
2022/11/08 10:23:44;;;;;;;5.83;1.80;;;;;;;-145.14;100.00;70583.66;5006208;28;20917;-73
2022/11/08 10:26:18;;;;;;;5.43;1.40;;;;;;;-145.14;100.00;70583.66;5009209;28;20417;-73
2022/11/08 10:28:49;;;;;;;5.43;1.90;;;;;;;-145.14;100.00;70583.66;5010458;28;20427;-73
2022/11/08 10:31:17;;;;;;;5.40;1.93;;;;;;;-145.14;100.00;70583.66;5011420;28;20459;-72
2022/11/08 10:33:52;;;;;;;3.27;1.50;;;;;;;-145.14;100.00;70583.66;5008107;28;20537;-74
2022/11/08 10:36:34;;;;;;;2.53;1.13;;;;;;;-145.14;100.00;70583.66;5003065;28;20495;-73
2022/11/08 10:39:08;;;;;;;2.37;1.50;;;;;;;-145.14;100.00;70583.66;5009050;28;20436;-73
2022/11/08 10:41:44;;;;;;;2.57;1.47;;;;;;;-145.14;100.00;70583.66;5008188;28;20598;-73
2022/11/08 10:44:23;;;;;;;4.40;1.40;;;;;;;-145.14;100.00;70583.66;5011397;28;20437;-73
2022/11/08 10:46:49;;;;;;;3.10;1.50;;;;;;;-145.14;100.00;70583.66;5008577;28;20420;-73
2022/11/08 10:49:37;;;;;;;4.83;1.87;;;;;;;-145.14;100.00;70583.66;4985096;28;20455;-72
2022/11/08 10:52:14;;;;;;;3.13;1.53;;;;;;;-145.14;100.00;70583.66;5004710;28;20428;-72
2022/11/08 10:54:52;;;;;;;4.27;1.43;;;;;;;-145.14;100.00;70583.66;5003414;28;20430;-72
2022/11/08 10:57:26;;;;;;;9.30;1.67;;;;;;;-145.14;100.00;70583.66;5010034;28;20447;-74
2022/11/08 10:59:54;;;;;;;5.40;1.90;;;;;;;-145.14;100.00;70583.66;5010697;28;20447;-72
2022/11/08 11:02:27;;;;;;;4.87;1.60;;;;;;;-145.14;100.00;70583.66;4996016;28;20424;-74
2022/11/08 11:04:55;;;;;;;3.80;1.60;;;;;;;-145.14;100.00;70583.66;5014660;28;20419;-74
2022/11/08 11:07:26;;;;;;;4.37;1.83;;;;;;;-145.14;100.00;70583.66;5010460;28;21285;-73
2022/11/08 11:09:51;;;;;;;4.07;1.47;;;;;;;-145.14;100.00;70583.66;5010643;28;21015;-74
2022/11/08 11:12:17;;;;;;;3.70;1.60;;;;;;;-145.14;100.00;70583.66;5010135;28;20436;-75
2022/11/08 11:14:42;;;;;;;7.10;1.60;;;;;;;-145.14;100.00;70583.66;5002790;28;20185;-73
2022/11/08 11:17:17;;;;;;;6.57;1.20;;;;;;;-145.14;100.00;70583.66;4989343;28;20576;-74
2022/11/08 11:19:53;;;;;;;6.30;1.47;;;;;;;-145.14;100.00;70583.66;4986305;28;20271;-74
2022/11/08 11:22:31;;;;;;;5.20;1.37;;;;;;;-145.14;100.00;70583.66;5000229;28;20431;-73
2022/11/08 11:25:05;;;;;;;8.57;1.63;;;;;;;-145.14;100.00;70583.66;5015978;23;20512;-78
2022/11/08 11:27:36;;;;;;;4.13;1.47;;;;;;;-145.14;100.00;70583.66;5036601;28;20775;-80
2022/11/08 11:30:11;;;;;;;3.93;1.60;;;;;;;-145.14;100.00;70583.66;5043128;28;20822;-76